Wetterdaten: Mittwoch, 26.11.2014
Datum Zeit Temp. A. Feuchte A. Luftdruck Regen Wind Richtung Richtung Sonnenschein ET UV Solar Taupunkt Windchill Windben Empfang
26.11.2014 00:00 2,9 C 74 % 1021,8 hPa 0,0 l/m 15,5 km/h (3 Bft) O-SO 111 0 min 0,000 mm 0,0 UV-I 0 W/m -1,3 C -3,7 C 19,8 km/h (3 Bft) 0,00 %
26.11.2014 00:15 2,8 C 74 % 1021,6 hPa 0,0 l/m 2,9 km/h (1 Bft) W-SW 256 0 min 0,000 mm 0,0 UV-I 0 W/m -1,4 C 2,8 C 7,9 km/h (2 Bft) 0,00 %
26.11.2014 00:30 2,7 C 74 % 1021,4 hPa 0,0 l/m 4,3 km/h (1 Bft) O 93 0 min 0,000 mm 0,0 UV-I 0 W/m -1,5 C 2,7 C 7,9 km/h (2 Bft) 0,00 %
26.11.2014 00:45 2,6 C 74 % 1021,3 hPa 0,0 l/m 4,7 km/h (1 Bft) O 88 0 min 0,000 mm 0,0 UV-I 0 W/m -1,6 C 2,6 C 11,9 km/h (2 Bft) 0,00 %
26.11.2014 01:00 2,5 C 75 % 1021,0 hPa 0,0 l/m 4,7 km/h (1 Bft) O 81 0 min 0,000 mm 0,0 UV-I 0 W/m -1,5 C 2,5 C 7,9 km/h (2 Bft) 0,00 %
26.11.2014 01:15 2,5 C 74 % 1021,0 hPa 0,0 l/m 13,3 km/h (3 Bft) SO 135 0 min 0,000 mm 0,0 UV-I 0 W/m -1,7 C -3,0 C 15,8 km/h (3 Bft) 0,00 %
26.11.2014 01:30 2,4 C 71 % 1021,0 hPa 0,0 l/m 4,3 km/h (1 Bft) O-SO 110 0 min 0,000 mm 0,0 UV-I 0 W/m -2,3 C 2,4 C 7,9 km/h (2 Bft) 0,00 %
26.11.2014 01:45 2,4 C 71 % 1020,6 hPa 0,0 l/m 24,1 km/h (4 Bft) O 97 0 min 0,000 mm 0,0 UV-I 0 W/m -2,3 C -8,1 C 28,1 km/h (4 Bft) 0,00 %
26.11.2014 02:00 2,3 C 71 % 1020,7 hPa 0,0 l/m 21,6 km/h (4 Bft) O-SO 104 0 min 0,000 mm 0,0 UV-I 0 W/m -2,4 C -7,3 C 28,1 km/h (4 Bft) 0,00 %
26.11.2014 02:15 2,3 C 71 % 1020,6 hPa 0,0 l/m 23,0 km/h (4 Bft) O 90 0 min 0,000 mm 0,0 UV-I 0 W/m -2,4 C -7,9 C 32,0 km/h (5 Bft) 0,00 %
26.11.2014 02:30 2,2 C 71 % 1020,3 hPa 0,0 l/m 24,5 km/h (4 Bft) SO 129 0 min 0,000 mm 0,0 UV-I 0 W/m -2,5 C -8,6 C 32,0 km/h (5 Bft) 0,00 %
26.11.2014 02:45 2,2 C 71 % 1020,3 hPa 0,0 l/m 17,3 km/h (3 Bft) O 88 0 min 0,000 mm 0,0 UV-I 0 W/m -2,5 C -5,5 C 24,1 km/h (4 Bft) 0,00 %
26.11.2014 03:00 2,2 C 71 % 1020,5 hPa 0,0 l/m 15,8 km/h (3 Bft) O 99 0 min 0,000 mm 0,0 UV-I 0 W/m -2,5 C -4,8 C 19,8 km/h (3 Bft) 0,00 %
26.11.2014 03:15 2,2 C 71 % 1020,3 hPa 0,0 l/m 13,3 km/h (3 Bft) O-SO 117 0 min 0,000 mm 0,0 UV-I 0 W/m -2,5 C -3,3 C 24,1 km/h (4 Bft) 0,00 %
26.11.2014 03:30 2,2 C 71 % 1020,1 hPa 0,0 l/m 20,9 km/h (4 Bft) O-SO 112 0 min 0,000 mm 0,0 UV-I 0 W/m -2,5 C -7,2 C 24,1 km/h (4 Bft) 0,00 %
26.11.2014 03:45 2,2 C 71 % 1020,0 hPa 0,0 l/m 5,8 km/h (2 Bft) O-NO 63 0 min 0,000 mm 0,0 UV-I 0 W/m -2,5 C 2,2 C 11,9 km/h (2 Bft) 0,00 %
26.11.2014 04:00 2,2 C 70 % 1020,0 hPa 0,0 l/m 21,6 km/h (4 Bft) O-SO 105 0 min 0,000 mm 0,0 UV-I 0 W/m -2,7 C -7,5 C 24,1 km/h (4 Bft) 0,00 %
26.11.2014 04:15 2,2 C 70 % 1019,8 hPa 0,0 l/m 14,0 km/h (3 Bft) S 171 0 min 0,000 mm 0,0 UV-I 0 W/m -2,7 C -3,7 C 19,8 km/h (3 Bft) 0,00 %
26.11.2014 04:30 2,2 C 70 % 1019,9 hPa 0,0 l/m 15,8 km/h (3 Bft) O 98 0 min 0,000 mm 0,0 UV-I 0 W/m -2,7 C -4,8 C 19,8 km/h (3 Bft) 0,00 %
26.11.2014 04:45 2,2 C 70 % 1019,7 hPa 0,0 l/m 19,1 km/h (3 Bft) O-SO 103 0 min 0,000 mm 0,0 UV-I 0 W/m -2,7 C -6,4 C 24,1 km/h (4 Bft) 0,00 %
26.11.2014 05:00 2,2 C 70 % 1019,5 hPa 0,0 l/m 15,5 km/h (3 Bft) O-NO 72 0 min 0,000 mm 0,0 UV-I 0 W/m -2,7 C -4,6 C 24,1 km/h (4 Bft) 0,00 %
26.11.2014 05:15 2,2 C 70 % 1019,7 hPa 0,0 l/m 1,4 km/h (1 Bft) O-NO 71 0 min 0,000 mm 0,0 UV-I 0 W/m -2,7 C 2,2 C 4,0 km/h (1 Bft) 0,00 %
26.11.2014 05:30 2,2 C 70 % 1019,5 hPa 0,0 l/m 15,5 km/h (3 Bft) O 101 0 min 0,000 mm 0,0 UV-I 0 W/m -2,7 C -4,6 C 19,8 km/h (3 Bft) 0,00 %
26.11.2014 05:45 2,2 C 70 % 1019,4 hPa 0,0 l/m 11,9 km/h (2 Bft) O 82 0 min 0,000 mm 0,0 UV-I 0 W/m -2,7 C -2,4 C 19,8 km/h (3 Bft) 0,00 %
26.11.2014 06:00 2,2 C 70 % 1019,3 hPa 0,0 l/m 15,8 km/h (3 Bft) O-SO 106 0 min 0,000 mm 0,0 UV-I 0 W/m -2,7 C -4,8 C 19,8 km/h (3 Bft) 0,00 %
26.11.2014 06:15 2,2 C 71 % 1019,5 hPa 0,0 l/m 9,0 km/h (2 Bft) O-SO 107 0 min 0,000 mm 0,0 UV-I 0 W/m -2,5 C -0,2 C 11,9 km/h (2 Bft) 0,00 %
26.11.2014 06:30 2,2 C 71 % 1019,4 hPa 0,0 l/m 14,0 km/h (3 Bft) O 91 0 min 0,000 mm 0,0 UV-I 0 W/m -2,5 C -3,7 C 15,8 km/h (3 Bft) 0,00 %
26.11.2014 06:45 2,1 C 71 % 1019,4 hPa 0,0 l/m 19,4 km/h (3 Bft) O 92 0 min 0,000 mm 0,0 UV-I 0 W/m -2,6 C -6,7 C 28,1 km/h (4 Bft) 0,00 %
26.11.2014 07:00 2,1 C 71 % 1019,4 hPa 0,0 l/m 9,7 km/h (2 Bft) O-SO 113 0 min 0,000 mm 0,0 UV-I 0 W/m -2,6 C -0,9 C 11,9 km/h (2 Bft) 0,00 %
26.11.2014 07:15 2,1 C 71 % 1019,5 hPa 0,0 l/m 19,1 km/h (3 Bft) O 98 0 min 0,000 mm 0,0 UV-I 0 W/m -2,6 C -6,5 C 19,8 km/h (3 Bft) 0,00 %
26.11.2014 07:30 2,1 C 71 % 1019,8 hPa 0,0 l/m 9,4 km/h (2 Bft) O 100 0 min 0,000 mm 0,0 UV-I 0 W/m -2,6 C -0,7 C 11,9 km/h (2 Bft) 0,00 %
26.11.2014 07:45 2,2 C 71 % 1019,9 hPa 0,0 l/m 14,8 km/h (3 Bft) O 85 0 min 0,000 mm 0,0 UV-I 0 W/m -2,5 C -4,2 C 19,8 km/h (3 Bft) 0,00 %
26.11.2014 08:00 2,1 C 71 % 1019,9 hPa 0,0 l/m 5,4 km/h (1 Bft) O 83 0 min 0,000 mm 0,0 UV-I 0 W/m -2,6 C 2,1 C 7,9 km/h (2 Bft) 0,00 %
26.11.2014 08:15 2,1 C 71 % 1020,0 hPa 0,0 l/m 5,4 km/h (1 Bft) S 190 0 min 0,000 mm 0,0 UV-I 0 W/m -2,6 C 2,1 C 7,9 km/h (2 Bft) 0,00 %
26.11.2014 08:30 2,1 C 71 % 1019,8 hPa 0,0 l/m 7,9 km/h (2 Bft) O 101 0 min 0,000 mm 0,0 UV-I 0 W/m -2,6 C 0,7 C 11,9 km/h (2 Bft) 0,00 %
26.11.2014 08:45 2,2 C 71 % 1020,0 hPa 0,0 l/m 10,4 km/h (2 Bft) S-SW 211 0 min 0,000 mm 0,0 UV-I 8 W/m -2,5 C -1,3 C 19,8 km/h (3 Bft) 0,00 %
26.11.2014 09:00 2,2 C 71 % 1020,0 hPa 0,0 l/m 11,5 km/h (2 Bft) O-NO 60 0 min 0,000 mm 0,0 UV-I 17 W/m -2,5 C -2,1 C 19,8 km/h (3 Bft) 0,00 %
26.11.2014 09:15 2,2 C 71 % 1020,1 hPa 0,0 l/m 5,8 km/h (2 Bft) O 87 0 min 0,000 mm 0,0 UV-I 13 W/m -2,5 C 2,2 C 7,9 km/h (2 Bft) 0,00 %
26.11.2014 09:30 2,2 C 71 % 1019,9 hPa 0,0 l/m 5,8 km/h (2 Bft) O 95 0 min 0,000 mm 0,0 UV-I 65 W/m -2,5 C 2,2 C 7,9 km/h (2 Bft) 0,00 %
26.11.2014 09:45 2,3 C 71 % 1019,7 hPa 0,0 l/m 7,9 km/h (2 Bft) S-SO 158 0 min 0,000 mm 0,0 UV-I 74 W/m -2,4 C 0,9 C 7,9 km/h (2 Bft) 0,00 %
26.11.2014 10:00 2,4 C 75 % 1019,9 hPa 0,0 l/m 14,0 km/h (3 Bft) O 99 0 min 0,000 mm 0,0 UV-I 91 W/m -1,6 C -3,5 C 19,8 km/h (3 Bft) 0,00 %
26.11.2014 10:15 2,5 C 74 % 1019,7 hPa 0,0 l/m 11,5 km/h (2 Bft) NO 38 0 min 0,000 mm 1,0 UV-I 115 W/m -1,7 C -1,8 C 15,8 km/h (3 Bft) 0,00 %
26.11.2014 10:30 2,5 C 75 % 1019,7 hPa 0,0 l/m 8,3 km/h (2 Bft) S 173 0 min 0,000 mm 1,0 UV-I 120 W/m -1,5 C 0,7 C 11,9 km/h (2 Bft) 0,00 %
26.11.2014 10:45 2,6 C 75 % 1019,2 hPa 0,0 l/m 18,0 km/h (3 Bft) O-SO 106 0 min 0,000 mm 1,0 UV-I 169 W/m -1,4 C -5,4 C 24,1 km/h (4 Bft) 0,00 %
26.11.2014 11:00 2,8 C 74 % 1019,4 hPa 0,0 l/m 7,2 km/h (2 Bft) O-NO 59 0 min 0,000 mm 1,0 UV-I 135 W/m -1,4 C 2,0 C 11,9 km/h (2 Bft) 0,00 %
26.11.2014 11:15 2,9 C 75 % 1019,0 hPa 0,0 l/m 3,2 km/h (1 Bft) S 178 0 min 0,000 mm 1,0 UV-I 174 W/m -1,1 C 2,9 C 7,9 km/h (2 Bft) 0,00 %
26.11.2014 11:30 3,0 C 75 % 1018,9 hPa 0,0 l/m 5,8 km/h (2 Bft) O-SO 121 15 min 0,000 mm 1,0 UV-I 244 W/m -1,0 C 3,0 C 7,9 km/h (2 Bft) 0,00 %
26.11.2014 11:45 3,1 C 75 % 1018,8 hPa 0,0 l/m 9,0 km/h (2 Bft) O 95 15 min 0,000 mm 1,0 UV-I 261 W/m -0,9 C 0,8 C 11,9 km/h (2 Bft) 0,00 %
26.11.2014 12:00 3,2 C 75 % 1018,7 hPa 0,0 l/m 4,3 km/h (1 Bft) S 175 15 min 0,000 mm 1,0 UV-I 263 W/m -0,8 C 3,2 C 7,9 km/h (2 Bft) 0,00 %
26.11.2014 12:15 3,4 C 73 % 1018,5 hPa 0,0 l/m 1,4 km/h (1 Bft) O 87 15 min 0,000 mm 1,0 UV-I 264 W/m -1,0 C 3,4 C 4,0 km/h (1 Bft) 0,00 %
26.11.2014 12:30 3,5 C 73 % 1018,7 hPa 0,0 l/m 5,4 km/h (1 Bft) SO 130 15 min 0,000 mm 1,0 UV-I 295 W/m -0,9 C 3,5 C 7,9 km/h (2 Bft) 0,00 %
26.11.2014 12:45 3,5 C 73 % 1018,1 hPa 0,0 l/m 9,7 km/h (2 Bft) O 100 15 min 0,000 mm 1,0 UV-I 348 W/m -0,9 C 0,6 C 11,9 km/h (2 Bft) 0,00 %
26.11.2014 13:00 3,5 C 73 % 1018,1 hPa 0,0 l/m 7,2 km/h (2 Bft) O-SO 107 15 min 0,000 mm 1,0 UV-I 238 W/m -0,9 C 2,8 C 11,9 km/h (2 Bft) 0,00 %
26.11.2014 13:15 3,7 C 71 % 1018,0 hPa 0,0 l/m 10,4 km/h (2 Bft) SO 132 15 min 0,000 mm 1,0 UV-I 403 W/m -1,1 C 0,3 C 15,8 km/h (3 Bft) 0,00 %
26.11.2014 13:30 4,0 C 71 % 1017,6 hPa 0,0 l/m 11,9 km/h (2 Bft) SO 125 15 min 0,000 mm 1,0 UV-I 267 W/m -0,8 C -0,3 C 19,8 km/h (3 Bft) 0,00 %
26.11.2014 13:45 4,0 C 71 % 1017,6 hPa 0,0 l/m 4,3 km/h (1 Bft) N-NO 33 15 min 0,000 mm 1,0 UV-I 180 W/m -0,8 C 4,0 C 11,9 km/h (2 Bft) 0,00 %
26.11.2014 14:00 4,1 C 71 % 1017,7 hPa 0,0 l/m 10,8 km/h (2 Bft) SO 127 15 min 0,000 mm 1,0 UV-I 261 W/m -0,7 C 0,5 C 11,9 km/h (2 Bft) 0,00 %
26.11.2014 14:15 4,2 C 71 % 1017,5 hPa 0,0 l/m 0,0 km/h (0 Bft) S-SW 192 15 min 0,000 mm 1,0 UV-I 200 W/m -0,6 C 4,2 C 0,0 km/h (0 Bft) 0,00 %
26.11.2014 14:30 4,2 C 71 % 1017,6 hPa 0,0 l/m 9,0 km/h (2 Bft) S 173 15 min 0,000 mm 1,0 UV-I 137 W/m -0,6 C 1,9 C 15,8 km/h (3 Bft) 0,00 %
26.11.2014 14:45 4,2 C 71 % 1017,3 hPa 0,0 l/m 0,4 km/h (0 Bft) S-SW 194 0 min 0,000 mm 0,0 UV-I 63 W/m -0,6 C 4,2 C 4,0 km/h (1 Bft) 0,00 %
26.11.2014 15:00 4,2 C 71 % 1017,3 hPa 0,0 l/m 10,4 km/h (2 Bft) S 177 0 min 0,000 mm 0,0 UV-I 51 W/m -0,6 C 0,9 C 15,8 km/h (3 Bft) 0,00 %
26.11.2014 15:15 4,2 C 71 % 1017,3 hPa 0,0 l/m 0,7 km/h (0 Bft) SO 130 0 min 0,000 mm 0,0 UV-I 19 W/m -0,6 C 4,2 C 4,0 km/h (1 Bft) 0,00 %
26.11.2014 15:30 4,1 C 71 % 1017,1 hPa 0,0 l/m 15,5 km/h (3 Bft) O-SO 112 0 min 0,000 mm 0,0 UV-I 0 W/m -0,7 C -2,3 C 19,8 km/h (3 Bft) 0,00 %
26.11.2014 15:45 4,0 C 71 % 1017,0 hPa 0,0 l/m 1,8 km/h (1 Bft) O 95 0 min 0,000 mm 0,0 UV-I 0 W/m -0,8 C 4,0 C 7,9 km/h (2 Bft) 0,00 %
26.11.2014 16:00 3,9 C 71 % 1017,0 hPa 0,0 l/m 3,2 km/h (1 Bft) O 101 0 min 0,000 mm 0,0 UV-I 0 W/m -0,9 C 3,9 C 4,0 km/h (1 Bft) 0,00 %
26.11.2014 16:15 3,8 C 71 % 1017,1 hPa 0,0 l/m 13,3 km/h (3 Bft) O-SO 102 0 min 0,000 mm 0,0 UV-I 0 W/m -1,0 C -1,4 C 19,8 km/h (3 Bft) 0,00 %
26.11.2014 16:30 3,7 C 71 % 1017,3 hPa 0,0 l/m 18,4 km/h (3 Bft) O-NO 78 0 min 0,000 mm 0,0 UV-I 0 W/m -1,1 C -4,2 C 24,1 km/h (4 Bft) 0,00 %
26.11.2014 16:45 3,5 C 71 % 1017,0 hPa 0,0 l/m 1,8 km/h (1 Bft) NW 319 0 min 0,000 mm 0,0 UV-I 0 W/m -1,3 C 3,5 C 4,0 km/h (1 Bft) 0,00 %
26.11.2014 17:00 3,4 C 72 % 1016,9 hPa 0,0 l/m 18,0 km/h (3 Bft) O-NO 73 0 min 0,000 mm 0,0 UV-I 0 W/m -1,2 C -4,4 C 24,1 km/h (4 Bft) 0,00 %
26.11.2014 17:15 3,2 C 72 % 1016,7 hPa 0,0 l/m 20,5 km/h (4 Bft) O 96 0 min 0,000 mm 0,0 UV-I 0 W/m -1,3 C -5,7 C 24,1 km/h (4 Bft) 0,00 %
26.11.2014 17:30 3,0 C 72 % 1016,8 hPa 0,0 l/m 9,7 km/h (2 Bft) O-SO 117 0 min 0,000 mm 0,0 UV-I 0 W/m -1,5 C 0,1 C 19,8 km/h (3 Bft) 0,00 %
26.11.2014 17:45 2,8 C 72 % 1016,9 hPa 0,0 l/m 14,8 km/h (3 Bft) O-SO 111 0 min 0,000 mm 0,0 UV-I 0 W/m -1,7 C -3,5 C 19,8 km/h (3 Bft) 0,00 %
26.11.2014 18:00 2,6 C 73 % 1017,0 hPa 0,0 l/m 7,9 km/h (2 Bft) S 173 0 min 0,000 mm 0,0 UV-I 0 W/m -1,7 C 1,2 C 11,9 km/h (2 Bft) 0,00 %
26.11.2014 18:15 2,4 C 73 % 1017,1 hPa 0,0 l/m 9,0 km/h (2 Bft) O-SO 115 0 min 0,000 mm 0,0 UV-I 0 W/m -1,9 C 0,0 C 15,8 km/h (3 Bft) 0,00 %
26.11.2014 18:30 2,3 C 69 % 1017,1 hPa 0,0 l/m 10,4 km/h (2 Bft) O-NO 78 0 min 0,000 mm 0,0 UV-I 0 W/m -2,8 C -1,2 C 11,9 km/h (2 Bft) 0,00 %
26.11.2014 18:45 2,1 C 70 % 1017,1 hPa 0,0 l/m 10,8 km/h (2 Bft) S-SW 211 0 min 0,000 mm 0,0 UV-I 0 W/m -2,8 C -1,7 C 15,8 km/h (3 Bft) 0,00 %
26.11.2014 19:00 2,0 C 70 % 1017,0 hPa 0,0 l/m 4,0 km/h (1 Bft) O-SO 123 0 min 0,000 mm 0,0 UV-I 0 W/m -2,9 C 2,0 C 7,9 km/h (2 Bft) 0,00 %
26.11.2014 19:15 1,8 C 70 % 1017,0 hPa 0,0 l/m 14,4 km/h (3 Bft) O 99 0 min 0,000 mm 0,0 UV-I 0 W/m -3,1 C -4,5 C 19,8 km/h (3 Bft) 0,00 %
26.11.2014 19:30 1,6 C 70 % 1016,8 hPa 0,0 l/m 14,4 km/h (3 Bft) O 100 0 min 0,000 mm 0,0 UV-I 0 W/m -3,3 C -4,7 C 15,8 km/h (3 Bft) 0,00 %
26.11.2014 19:45 1,6 C 70 % 1016,8 hPa 0,0 l/m 9,7 km/h (2 Bft) O-NO 65 0 min 0,000 mm 0,0 UV-I 0 W/m -3,3 C -1,4 C 11,9 km/h (2 Bft) 0,00 %
26.11.2014 20:00 1,5 C 70 % 1017,1 hPa 0,0 l/m 7,9 km/h (2 Bft) O-NO 65 0 min 0,000 mm 0,0 UV-I 0 W/m -3,4 C 0,0 C 15,8 km/h (3 Bft) 0,00 %
26.11.2014 20:15 1,5 C 71 % 1016,9 hPa 0,0 l/m 12,2 km/h (2 Bft) SO 134 0 min 0,000 mm 0,0 UV-I 0 W/m -3,2 C -3,4 C 15,8 km/h (3 Bft) 0,00 %
26.11.2014 20:30 1,4 C 72 % 1016,8 hPa 0,0 l/m 10,4 km/h (2 Bft) S-SW 205 0 min 0,000 mm 0,0 UV-I 0 W/m -3,1 C -2,2 C 15,8 km/h (3 Bft) 0,00 %
26.11.2014 20:45 1,4 C 72 % 1016,7 hPa 0,0 l/m 3,2 km/h (1 Bft) O-SO 104 0 min 0,000 mm 0,0 UV-I 0 W/m -3,1 C 1,4 C 4,0 km/h (1 Bft) 0,00 %
26.11.2014 21:00 1,3 C 72 % 1016,5 hPa 0,0 l/m 1,8 km/h (1 Bft) O 94 0 min 0,000 mm 0,0 UV-I 0 W/m -3,2 C 1,3 C 4,0 km/h (1 Bft) 0,00 %
26.11.2014 21:15 1,3 C 71 % 1016,5 hPa 0,0 l/m 20,9 km/h (4 Bft) O-SO 104 0 min 0,000 mm 0,0 UV-I 0 W/m -3,4 C -8,3 C 24,1 km/h (4 Bft) 0,00 %
26.11.2014 21:30 1,3 C 71 % 1016,5 hPa 0,0 l/m 9,0 km/h (2 Bft) O-SO 120 0 min 0,000 mm 0,0 UV-I 0 W/m -3,4 C -1,2 C 15,8 km/h (3 Bft) 0,00 %
26.11.2014 21:45 1,2 C 71 % 1016,4 hPa 0,0 l/m 11,5 km/h (2 Bft) O-SO 117 0 min 0,000 mm 0,0 UV-I 0 W/m -3,5 C -3,3 C 15,8 km/h (3 Bft) 0,00 %
26.11.2014 22:00 1,1 C 71 % 1016,6 hPa 0,0 l/m 7,9 km/h (2 Bft) O-SO 108 0 min 0,000 mm 0,0 UV-I 0 W/m -3,6 C -0,4 C 11,9 km/h (2 Bft) 0,00 %
26.11.2014 22:15 1,1 C 71 % 1016,2 hPa 0,0 l/m 0,4 km/h (0 Bft) NO 50 0 min 0,000 mm 0,0 UV-I 0 W/m -3,6 C 1,1 C 4,0 km/h (1 Bft) 0,00 %
26.11.2014 22:30 1,0 C 71 % 1016,2 hPa 0,0 l/m 15,5 km/h (3 Bft) O-NO 72 0 min 0,000 mm 0,0 UV-I 0 W/m -3,7 C -6,1 C 19,8 km/h (3 Bft) 0,00 %
26.11.2014 22:45 0,9 C 71 % 1016,1 hPa 0,0 l/m 14,4 km/h (3 Bft) O-SO 104 0 min 0,000 mm 0,0 UV-I 0 W/m -3,7 C -5,5 C 19,8 km/h (3 Bft) 0,00 %
26.11.2014 23:00 0,8 C 71 % 1016,2 hPa 0,0 l/m 7,9 km/h (2 Bft) O 84 0 min 0,000 mm 0,0 UV-I 0 W/m -3,8 C -0,7 C 11,9 km/h (2 Bft) 0,00 %
26.11.2014 23:15 0,8 C 72 % 1015,8 hPa 0,0 l/m 2,9 km/h (1 Bft) SO 144 0 min 0,000 mm 0,0 UV-I 0 W/m -3,7 C 0,8 C 7,9 km/h (2 Bft) 0,00 %
26.11.2014 23:30 0,7 C 71 % 1015,5 hPa 0,0 l/m 13,3 km/h (3 Bft) O-SO 108 0 min 0,000 mm 0,0 UV-I 0 W/m -3,9 C -5,1 C 15,8 km/h (3 Bft) 0,00 %
26.11.2014 23:45 0,7 C 71 % 1015,5 hPa 0,0 l/m 11,9 km/h (2 Bft) O-SO 102 0 min 0,000 mm 0,0 UV-I 0 W/m -3,9 C -4,1 C 15,8 km/h (3 Bft) 0,00 %
_ Min-Zeit 23:30 18:30 23:30 - 14:15 - - - - - - 23:30 02:30 14:15 00:00
Minimum _ 0,7 C 69 % 1015,5 hPa - 0,0 km/h (0 Bft) - - - - - - -3,9 C -8,6 C 0,0 km/h (0 Bft) 0,00 %
_ Max-Zeit 14:15 01:00 00:00 00:00 02:30 - - 11:30 00:00 10:15 13:15 14:15 14:15 02:15 00:00
Maximum _ 4,2 C 75 % 1021,8 hPa 0,0 l/m 24,5 km/h
SO (4 Bft)
- - 15 min 0,000 mm 1,0 UV-I 403 W/m -0,6 C 4,2 C 32,0 km/h
O (5 Bft)
0,00 %
Durchschnitt _ 2,5 C 72 % 1018,5 hPa #0,0 l/m 10,5 km/h (2 Bft) O - #3:15 h #0,000 mm 1,0 UV-I 166 W/m -2,1 C -1,2 C 14,9 km/h (3 Bft) 0,00 %